Time;durP1;ratioP1;P1;durP2;ratioP2;P2;SDS_P1;SDS_P2;PMS_P1;PMS_P2;Temp;Humidity;BMP_temperature;BMP_pressure;BME280_temperature;BME280_humidity;BME280_pressure;Samples;Min_cycle;Max_cycle;Signal;HPM_P1;HPM_P2
2023/09/13 00:00:48;;;;;;;23.10;13.00;;;;;;;21.01;100.00;100255.38;8388604;28;20570;-63
2023/09/13 00:04:48;;;;;;;21.67;12.90;;;;;;;21.01;100.00;100254.50;8388704;28;20033;-62
2023/09/13 00:08:48;;;;;;;24.88;13.55;;;;;;;21.06;100.00;100251.97;8388091;28;20125;-63
2023/09/13 00:12:49;;;;;;;22.92;13.30;;;;;;;21.04;100.00;100251.34;8387921;28;20136;-63
2023/09/13 00:16:50;;;;;;;20.35;12.35;;;;;;;21.04;100.00;100251.34;8389872;28;20036;-63
2023/09/13 00:20:53;;;;;;;25.13;13.18;;;;;;;21.03;100.00;100255.16;8393676;28;20494;-63
2023/09/13 00:24:53;;;;;;;22.20;13.52;;;;;;;21.07;100.00;100257.25;8394088;28;20380;-63
2023/09/13 00:28:53;;;;;;;25.67;14.25;;;;;;;21.00;100.00;100272.09;8394036;28;20040;-62
2023/09/13 00:32:54;;;;;;;26.67;14.32;;;;;;;21.02;100.00;100264.47;8392960;28;20067;-61
2023/09/13 00:36:54;;;;;;;25.40;14.45;;;;;;;21.06;100.00;100271.22;8394161;28;20044;-61
2023/09/13 00:40:56;;;;;;;27.80;14.55;;;;;;;21.03;100.00;100271.66;8393804;28;20044;-62
2023/09/13 00:44:56;;;;;;;30.75;15.23;;;;;;;21.04;100.00;100273.34;8393775;28;20036;-62
2023/09/13 00:48:57;;;;;;;28.27;14.27;;;;;;;21.03;100.00;100271.66;8392600;28;20037;-62
2023/09/13 00:52:58;;;;;;;27.92;15.65;;;;;;;21.09;100.00;100270.78;8393033;28;20170;-62
2023/09/13 00:56:59;;;;;;;30.30;15.52;;;;;;;21.12;100.00;100275.88;8392614;28;20463;-62
2023/09/13 01:00:59;;;;;;;26.27;14.55;;;;;;;21.20;100.00;100272.91;8393300;28;20056;-62
2023/09/13 01:05:01;;;;;;;24.77;13.70;;;;;;;21.21;100.00;100269.09;8393158;28;20047;-63
2023/09/13 01:09:04;;;;;;;26.15;14.90;;;;;;;21.24;100.00;100279.66;8392321;28;20041;-62
2023/09/13 01:13:04;;;;;;;29.52;15.07;;;;;;;21.19;100.00;100260.19;8382258;28;20054;-62
2023/09/13 01:17:14;;;;;;;27.08;15.30;;;;;;;21.15;100.00;100269.94;8393141;28;20115;-62
2023/09/13 01:21:54;;;;;;;32.10;14.90;;;;;;;21.16;100.00;100279.88;8389198;28;20048;-62
2023/09/13 01:26:34;;;;;;;30.83;15.85;;;;;;;21.10;100.00;100283.47;8389098;28;20045;-62
2023/09/13 01:30:37;;;;;;;30.65;16.60;;;;;;;21.11;100.00;100290.69;8387832;28;20435;-62
2023/09/13 01:34:37;;;;;;;36.17;18.27;;;;;;;21.12;100.00;100297.88;8388782;28;20052;-62
2023/09/13 01:38:38;;;;;;;34.20;16.92;;;;;;;21.21;100.00;100291.09;8391900;28;20033;-62
2023/09/13 01:42:43;;;;;;;33.95;17.88;;;;;;;21.22;100.00;100276.25;8391306;28;20270;-66
2023/09/13 01:46:45;;;;;;;41.38;19.13;;;;;;;21.23;100.00;100288.97;8391736;28;20472;-66
2023/09/13 01:50:47;;;;;;;38.55;20.05;;;;;;;21.20;100.00;100289.41;8391054;28;20043;-65
2023/09/13 01:54:48;;;;;;;42.53;20.75;;;;;;;21.23;100.00;100289.78;8391461;28;20502;-59
2023/09/13 01:58:49;;;;;;;43.20;20.77;;;;;;;21.24;100.00;100294.25;8391063;28;20460;-58
2023/09/13 02:02:50;;;;;;;44.85;21.20;;;;;;;21.19;100.00;100284.94;8391365;28;20041;-62
2023/09/13 02:06:50;;;;;;;47.08;23.13;;;;;;;21.08;100.00;100289.19;8390569;28;20127;-63
2023/09/13 02:10:50;;;;;;;50.35;25.70;;;;;;;21.06;100.00;100301.47;8389781;28;20044;-63
2023/09/13 02:14:51;;;;;;;56.22;26.48;;;;;;;21.02;100.00;100298.28;8390819;28;22294;-63
2023/09/13 02:18:51;;;;;;;55.08;27.38;;;;;;;21.06;100.00;100304.22;8389363;28;20071;-62
2023/09/13 02:22:52;;;;;;;67.18;29.35;;;;;;;21.06;100.00;100309.72;8390585;28;20049;-62
2023/09/13 02:26:56;;;;;;;57.25;28.13;;;;;;;21.03;100.00;100310.13;8390986;28;20036;-63
2023/09/13 02:30:57;;;;;;;;;;;;;;;21.09;100.00;100325.78;8388382;28;20044;-62
2023/09/13 02:34:58;;;;;;;67.40;31.15;;;;;;;21.13;100.00;100316.91;8390070;28;19916;-63
2023/09/13 02:38:59;;;;;;;65.95;30.20;;;;;;;21.23;100.00;100316.47;8389135;28;20402;-62
2023/09/13 02:42:59;;;;;;;76.55;32.53;;;;;;;21.22;100.00;100334.00;8390079;28;20040;-62
2023/09/13 02:47:01;;;;;;;73.97;30.83;;;;;;;21.25;100.00;100326.19;8389937;28;20086;-62
2023/09/13 02:51:02;;;;;;;73.10;32.42;;;;;;;21.26;100.00;100332.53;8389121;28;20550;-63
2023/09/13 02:55:07;;;;;;;72.03;32.90;;;;;;;21.21;100.00;100340.59;8373676;28;20040;-65
2023/09/13 02:59:08;;;;;;;69.15;31.10;;;;;;;21.29;100.00;100348.63;8366557;28;20047;-65
2023/09/13 03:03:09;;;;;;;79.55;33.05;;;;;;;21.34;100.00;100340.56;8376011;28;20047;-59
2023/09/13 03:07:11;;;;;;;75.35;34.38;;;;;;;21.34;100.00;100349.66;8373843;28;20041;-59
2023/09/13 03:11:14;;;;;;;81.57;34.72;;;;;;;21.26;100.00;100344.38;8372555;28;20053;-58
2023/09/13 03:15:16;;;;;;;77.32;33.72;;;;;;;21.30;100.00;100350.31;8377040;28;20127;-63
2023/09/13 03:19:16;;;;;;;74.25;33.70;;;;;;;21.31;100.00;100351.97;8367798;28;20048;-63
2023/09/13 03:23:17;;;;;;;80.15;34.13;;;;;;;21.23;100.00;100342.06;8369815;28;20124;-63
2023/09/13 03:27:17;;;;;;;78.00;34.15;;;;;;;21.29;100.00;100343.13;8369053;28;20037;-62
2023/09/13 03:31:21;;;;;;;85.25;36.03;;;;;;;21.28;100.00;100347.75;8375416;28;20045;-62
2023/09/13 03:35:22;;;;;;;85.63;37.28;;;;;;;21.26;100.00;100346.31;8369848;28;20041;-65
2023/09/13 03:39:25;;;;;;;87.38;38.00;;;;;;;21.30;100.00;100355.81;8371395;28;20072;-66
2023/09/13 03:43:26;;;;;;;79.78;35.67;;;;;;;21.26;100.00;100351.81;8375331;28;20045;-65
2023/09/13 03:47:27;;;;;;;82.93;36.33;;;;;;;21.28;100.00;100352.41;8376006;28;20037;-66
2023/09/13 03:51:28;;;;;;;82.38;36.75;;;;;;;21.26;100.00;100349.03;8372328;28;20036;-66
2023/09/13 03:55:28;;;;;;;85.20;37.72;;;;;;;21.29;100.00;100348.63;8378824;28;20091;-65
2023/09/13 03:59:29;;;;;;;78.40;36.78;;;;;;;21.33;100.00;100358.97;8377136;28;20045;-65
2023/09/13 04:03:32;;;;;;;81.78;37.20;;;;;;;21.28;100.00;100352.41;8406497;28;20057;-66
2023/09/13 04:07:33;;;;;;;89.95;36.13;;;;;;;21.18;100.00;100354.75;8377898;28;20434;-65
2023/09/13 04:11:33;;;;;;;84.93;36.92;;;;;;;21.11;100.00;100352.00;8376706;28;20060;-65
2023/09/13 04:15:33;;;;;;;84.60;35.15;;;;;;;21.05;100.00;100354.78;8374004;28;20045;-63
2023/09/13 04:19:34;;;;;;;77.35;34.53;;;;;;;20.94;100.00;100356.25;8376956;28;20127;-62
2023/09/13 04:23:35;;;;;;;79.35;33.17;;;;;;;21.00;100.00;100360.06;8381765;28;20094;-66
2023/09/13 04:27:36;;;;;;;81.00;34.80;;;;;;;20.96;100.00;100358.78;8376989;28;20127;-66
2023/09/13 04:31:36;;;;;;;72.80;32.50;;;;;;;20.99;100.00;100363.88;8373090;28;20068;-66
2023/09/13 04:35:37;;;;;;;59.53;29.00;;;;;;;21.02;100.00;100357.94;8377514;28;20036;-66
2023/09/13 04:39:38;;;;;;;66.22;30.67;;;;;;;21.01;100.00;100357.09;8373947;28;20301;-66
2023/09/13 04:43:39;;;;;;;62.53;28.00;;;;;;;20.99;100.00;100352.88;8381281;28;20522;-60
2023/09/13 04:47:39;;;;;;;60.08;28.23;;;;;;;20.90;100.00;100359.59;8375935;28;20437;-60
2023/09/13 04:51:40;;;;;;;58.65;27.02;;;;;;;20.87;100.00;100360.88;8379318;28;20383;-60
2023/09/13 04:55:43;;;;;;;49.00;24.00;;;;;;;20.79;100.00;100366.56;8374609;28;20052;-60
2023/09/13 04:59:47;;;;;;;53.47;26.02;;;;;;;20.69;100.00;100373.53;8375337;28;20032;-59
2023/09/13 05:03:49;;;;;;;51.03;23.77;;;;;;;20.61;100.00;100384.69;8373086;28;20028;-60
2023/09/13 05:07:50;;;;;;;48.13;25.02;;;;;;;20.60;100.00;100386.63;8401966;28;20043;-60
2023/09/13 05:11:51;;;;;;;44.05;23.20;;;;;;;20.61;100.00;100395.69;8376201;28;20449;-60
2023/09/13 05:15:51;;;;;;;46.08;23.33;;;;;;;20.61;100.00;100398.44;8375977;28;20148;-59
2023/09/13 05:19:52;;;;;;;42.53;23.00;;;;;;;20.60;100.00;100408.59;8375146;28;20049;-59
2023/09/13 05:23:52;;;;;;;45.15;22.95;;;;;;;20.64;100.00;100414.50;8373241;28;20097;-59
2023/09/13 05:27:52;;;;;;;46.42;21.58;;;;;;;20.61;100.00;100414.91;8375185;28;20112;-60
2023/09/13 05:31:53;;;;;;;43.80;22.23;;;;;;;20.67;100.00;100422.34;8371930;28;20048;-61
2023/09/13 05:35:54;;;;;;;43.15;22.40;;;;;;;20.67;100.00;100425.94;8366715;28;20040;-59
2023/09/13 05:39:55;;;;;;;35.90;21.75;;;;;;;20.65;100.00;100428.03;8372301;28;20037;-60
2023/09/13 05:43:55;;;;;;;40.92;21.67;;;;;;;20.65;100.00;100424.47;8374029;28;20171;-58
2023/09/13 05:47:59;;;;;;;40.10;22.15;;;;;;;20.67;100.00;100430.59;8368380;28;20040;-58
2023/09/13 05:52:00;;;;;;;39.80;20.13;;;;;;;20.79;100.00;100435.28;8355206;28;20041;-58
2023/09/13 05:56:03;;;;;;;46.03;23.40;;;;;;;20.71;100.00;100437.38;8365898;28;20275;-63
2023/09/13 06:00:05;;;;;;;46.63;23.27;;;;;;;20.76;100.00;100437.56;8404363;28;20056;-63
2023/09/13 06:04:23;;;;;;;41.83;23.08;;;;;;;20.73;100.00;100440.75;8390178;27;20471;-62
2023/09/13 06:08:24;;;;;;;43.35;23.13;;;;;;;20.70;100.00;100449.41;8386007;27;20625;-62
2023/09/13 06:12:25;;;;;;;41.67;22.45;;;;;;;20.69;100.00;100461.44;8404158;27;20041;-62
2023/09/13 06:16:25;;;;;;;40.70;23.25;;;;;;;20.82;100.00;100464.22;8387131;27;20037;-62
2023/09/13 06:20:26;;;;;;;43.40;22.35;;;;;;;20.87;100.00;100459.81;8384272;27;20490;-62
2023/09/13 06:24:26;;;;;;;42.58;21.15;;;;;;;20.85;100.00;100467.41;8382620;27;20033;-62
2023/09/13 06:28:27;;;;;;;42.45;21.10;;;;;;;20.82;100.00;100466.97;8383176;27;20123;-62
2023/09/13 06:32:27;;;;;;;38.38;21.20;;;;;;;20.80;100.00;100460.88;8382318;28;20116;-62
2023/09/13 06:36:28;;;;;;;37.72;19.90;;;;;;;20.83;100.00;100474.19;8385041;27;20044;-58
2023/09/13 06:40:28;;;;;;;38.67;19.27;;;;;;;20.88;100.00;100478.00;8382480;27;20033;-58
2023/09/13 06:44:29;;;;;;;36.85;20.42;;;;;;;20.91;100.00;100476.72;8374852;27;20618;-59
2023/09/13 06:48:29;;;;;;;39.00;20.98;;;;;;;20.84;100.00;100481.38;8383912;27;20036;-58
2023/09/13 06:52:30;;;;;;;35.22;18.48;;;;;;;20.90;100.00;100480.53;8383157;27;20048;-58
2023/09/13 06:56:30;;;;;;;33.83;18.70;;;;;;;20.93;100.00;100486.47;8384851;28;20041;-58
2023/09/13 07:00:31;;;;;;;30.35;17.40;;;;;;;20.98;100.00;100491.38;8379937;27;20164;-58
2023/09/13 07:04:31;;;;;;;34.33;18.50;;;;;;;21.00;100.00;100497.50;8377689;28;20068;-65
2023/09/13 07:08:32;;;;;;;34.65;18.13;;;;;;;21.03;100.00;100497.09;8377427;27;20056;-65
2023/09/13 07:12:32;;;;;;;34.15;18.42;;;;;;;21.06;100.00;100510.41;8374581;28;20065;-64
2023/09/13 07:16:33;;;;;;;36.55;17.48;;;;;;;20.99;100.00;100512.31;8360623;28;20044;-64
2023/09/13 07:20:33;;;;;;;32.88;17.10;;;;;;;21.03;100.00;100519.94;8360794;28;20036;-65
2023/09/13 07:24:33;;;;;;;31.52;18.50;;;;;;;21.03;100.00;100519.09;8356769;28;20037;-65
2023/09/13 07:28:35;;;;;;;39.88;19.25;;;;;;;21.07;100.00;100521.22;8359383;28;20033;-64
2023/09/13 07:32:37;;;;;;;32.30;18.67;;;;;;;21.10;100.00;100519.94;8359308;28;20458;-64
2023/09/13 07:36:38;;;;;;;35.17;18.65;;;;;;;21.11;100.00;100521.66;8360664;28;20049;-64
2023/09/13 07:40:39;;;;;;;33.70;18.63;;;;;;;21.09;100.00;100523.75;8358045;28;20037;-64
2023/09/13 07:44:40;;;;;;;32.75;18.33;;;;;;;21.10;100.00;100536.44;8359131;28;20099;-59
2023/09/13 07:48:40;;;;;;;32.35;17.52;;;;;;;21.12;100.00;100539.84;8361147;28;20041;-59
2023/09/13 07:52:40;;;;;;;31.70;17.38;;;;;;;21.11;100.00;100549.16;8360578;28;20095;-59
2023/09/13 07:56:41;;;;;;;32.15;17.50;;;;;;;21.15;100.00;100553.16;8357365;28;20037;-64
2023/09/13 08:00:43;;;;;;;38.83;19.27;;;;;;;21.15;100.00;100551.28;8357584;28;20477;-65
2023/09/13 08:04:43;;;;;;;32.53;17.88;;;;;;;21.18;100.00;100550.00;8357703;28;20404;-62
2023/09/13 08:08:44;;;;;;;35.13;17.50;;;;;;;21.33;100.00;100564.41;8360697;28;20041;-62
2023/09/13 08:12:45;;;;;;;34.97;18.77;;;;;;;21.40;100.00;100562.53;8357709;28;20365;-62
2023/09/13 08:16:45;;;;;;;36.00;19.27;;;;;;;21.45;100.00;100570.16;8352043;28;20144;-64
2023/09/13 08:20:46;;;;;;;36.28;17.95;;;;;;;21.80;100.00;100572.53;8359165;28;20092;-65
2023/09/13 08:24:46;;;;;;;33.20;17.65;;;;;;;21.89;100.00;100582.28;8357058;28;20065;-64
2023/09/13 08:28:47;;;;;;;30.85;17.05;;;;;;;21.99;100.00;100581.84;8357385;28;20041;-65
2023/09/13 08:32:47;;;;;;;33.45;15.90;;;;;;;21.93;98.28;100583.56;8354338;28;20044;-64
2023/09/13 08:36:49;;;;;;;29.13;15.15;;;;;;;21.97;98.52;100590.34;8357129;28;20137;-65
2023/09/13 08:40:51;;;;;;;29.08;13.60;;;;;;;22.05;98.14;100606.63;8353809;28;20034;-64
2023/09/13 08:44:53;;;;;;;37.70;14.60;;;;;;;22.01;97.72;100607.25;8358125;28;20044;-64
2023/09/13 08:48:55;;;;;;;23.55;14.02;;;;;;;22.03;98.10;100610.66;8351487;28;20482;-65
2023/09/13 08:53:00;;;;;;;28.23;14.32;;;;;;;22.30;96.43;100606.81;8357189;28;20032;-64
2023/09/13 08:57:02;;;;;;;27.35;13.93;;;;;;;22.70;94.03;100609.31;8355938;28;20111;-64
2023/09/13 09:01:06;;;;;;;29.05;13.30;;;;;;;23.12;92.18;100619.75;8354700;28;20063;-64
2023/09/13 09:05:11;;;;;;;23.58;12.07;;;;;;;23.25;89.99;100623.53;8355296;28;20040;-64
2023/09/13 09:09:19;;;;;;;21.48;12.40;;;;;;;23.29;89.56;100630.31;8352985;28;20041;-64
2023/09/13 09:13:24;;;;;;;19.85;12.07;;;;;;;23.44;90.59;100630.84;8365287;28;20072;-64
2023/09/13 09:17:26;;;;;;;21.98;12.23;;;;;;;23.63;88.58;100643.72;8350136;28;20037;-63
2023/09/13 09:21:27;;;;;;;21.13;10.38;;;;;;;23.39;89.28;100648.06;8356553;28;20038;-64
2023/09/13 09:25:30;;;;;;;22.17;10.70;;;;;;;23.19;88.15;100642.66;8358377;28;20445;-62
2023/09/13 09:29:37;;;;;;;19.00;10.02;;;;;;;23.30;88.09;100648.56;8350472;28;20060;-62
2023/09/13 09:33:38;;;;;;;19.10;10.18;;;;;;;23.61;88.38;100643.09;8352053;28;20411;-62
2023/09/13 09:37:38;;;;;;;19.08;8.98;;;;;;;23.79;86.47;100648.69;8354350;28;20073;-62
2023/09/13 09:41:39;;;;;;;21.02;10.48;;;;;;;24.11;85.75;100650.38;8351492;28;20036;-62
2023/09/13 09:45:39;;;;;;;21.73;9.10;;;;;;;25.66;79.53;100641.44;8354761;28;20051;-62
2023/09/13 09:49:43;;;;;;;18.95;9.93;;;;;;;25.46;80.05;100651.94;8355409;28;20052;-62
2023/09/13 09:53:44;;;;;;;20.00;9.60;;;;;;;25.12;79.09;100658.09;8353743;28;20354;-62
2023/09/13 09:57:46;;;;;;;20.05;9.65;;;;;;;25.15;81.48;100662.34;8349526;28;20656;-62
2023/09/13 10:01:56;;;;;;;18.13;9.45;;;;;;;25.14;82.81;100655.94;8352792;28;20132;-62
2023/09/13 10:06:14;;;;;;;21.25;10.77;;;;;;;24.40;81.86;100658.84;8354504;28;20082;-62
2023/09/13 10:10:29;;;;;;;21.52;9.23;;;;;;;24.17;86.15;100668.81;8366570;28;20040;-62
2023/09/13 10:14:30;;;;;;;12.43;7.68;;;;;;;24.35;85.33;100664.22;8368572;28;20037;-62
2023/09/13 10:18:36;;;;;;;15.82;8.02;;;;;;;25.60;80.42;100655.34;8371615;28;20068;-62
2023/09/13 10:22:41;;;;;;;17.85;8.45;;;;;;;25.22;80.78;100668.63;8347834;28;20402;-62
2023/09/13 10:26:41;;;;;;;14.25;7.50;;;;;;;25.80;79.09;100656.75;8349558;28;20041;-58
2023/09/13 10:30:47;;;;;;;17.20;8.38;;;;;;;26.80;72.26;100653.81;8352419;28;20095;-59
2023/09/13 10:34:52;;;;;;;14.68;7.30;;;;;;;26.81;73.50;100660.22;8354183;28;20041;-64
2023/09/13 10:39:07;;;;;;;12.10;7.25;;;;;;;26.02;74.84;100660.72;8350708;28;20056;-64
2023/09/13 10:43:08;;;;;;;14.80;8.30;;;;;;;25.49;76.56;100659.75;8371187;28;20329;-64
2023/09/13 10:47:10;;;;;;;10.25;6.88;;;;;;;25.85;74.70;100670.75;8368101;28;20072;-62
2023/09/13 10:51:11;;;;;;;13.65;6.75;;;;;;;25.67;76.08;100662.50;8377099;28;20028;-63
2023/09/13 10:55:13;;;;;;;13.38;6.65;;;;;;;26.46;73.56;100662.94;8374877;28;20071;-64
2023/09/13 10:59:17;;;;;;;10.60;5.20;;;;;;;26.42;72.33;100667.31;8376766;28;20484;-65
2023/09/13 11:03:18;;;;;;;9.13;5.38;;;;;;;25.45;74.59;100664.09;8373692;28;20037;-63
2023/09/13 11:07:18;;;;;;;11.10;6.18;;;;;;;24.97;77.21;100666.78;8376094;28;20155;-64
2023/09/13 11:11:21;;;;;;;13.60;7.72;;;;;;;24.51;81.53;100668.31;8374779;28;20060;-64
2023/09/13 11:15:23;;;;;;;13.10;7.43;;;;;;;24.20;80.99;100673.91;8403433;28;20044;-65
2023/09/13 11:19:27;;;;;;;15.48;7.65;;;;;;;24.22;81.72;100682.84;8376239;28;20082;-64
2023/09/13 11:23:42;;;;;;;12.48;7.18;;;;;;;25.84;76.82;100682.94;8361186;28;20040;-65
2023/09/13 11:27:43;;;;;;;13.32;7.20;;;;;;;27.00;71.31;100685.88;8373411;28;20045;-64
2023/09/13 11:32:04;;;;;;;12.50;7.20;;;;;;;25.89;75.62;100696.91;8374004;28;20086;-65
2023/09/13 11:36:05;;;;;;;10.63;6.65;;;;;;;25.39;76.68;100706.56;8354190;28;20037;-60
2023/09/13 11:40:10;;;;;;;15.77;8.52;;;;;;;24.74;79.16;100712.81;8358521;28;20037;-59
2023/09/13 11:44:10;;;;;;;16.60;8.80;;;;;;;24.23;80.00;100706.63;8357618;28;20461;-60
2023/09/13 11:48:12;;;;;;;17.65;7.93;;;;;;;24.04;82.07;100702.09;8357857;28;20064;-64
2023/09/13 11:52:13;;;;;;;17.30;9.45;;;;;;;24.22;81.51;100707.69;8359460;28;20055;-64
2023/09/13 11:56:34;;;;;;;20.95;9.70;;;;;;;24.82;79.85;100702.28;8356807;28;20052;-59
2023/09/13 12:00:40;;;;;;;16.92;8.82;;;;;;;25.01;77.54;100712.28;8349017;28;20041;-59
2023/09/13 12:04:43;;;;;;;14.73;7.80;;;;;;;24.94;78.61;100716.19;8358318;28;20048;-58
2023/09/13 12:08:46;;;;;;;12.05;7.38;;;;;;;25.12;78.80;100724.50;8356251;28;20449;-62
2023/09/13 12:12:47;;;;;;;15.93;9.07;;;;;;;24.57;82.27;100736.53;8356036;28;20041;-62
2023/09/13 12:16:50;;;;;;;11.10;5.90;;;;;;;23.47;90.02;100740.81;8358024;28;20041;-62
2023/09/13 12:20:50;;;;;;;13.65;5.53;;;;;;;22.03;100.00;100764.88;8356367;28;20070;-63
2023/09/13 12:24:51;;;;;;;5.65;3.95;;;;;;;21.44;100.00;100770.16;8356311;28;20041;-62
2023/09/13 12:28:53;;;;;;;4.28;2.20;;;;;;;20.82;100.00;100781.16;8356934;28;20040;-63
2023/09/13 12:32:54;;;;;;;4.57;2.38;;;;;;;20.66;100.00;100780.59;8349157;28;20044;-63
2023/09/13 12:36:55;;;;;;;3.45;1.90;;;;;;;20.52;100.00;100778.81;8356373;28;20653;-63
2023/09/13 12:40:56;;;;;;;3.03;1.60;;;;;;;20.58;100.00;100789.84;8354305;28;20045;-63
2023/09/13 12:44:56;;;;;;;1.75;1.23;;;;;;;20.60;100.00;100789.66;8357720;28;20075;-63
2023/09/13 12:48:57;;;;;;;2.20;1.80;;;;;;;20.51;100.00;100793.56;8354817;28;20090;-63
2023/09/13 12:52:58;;;;;;;2.47;1.65;;;;;;;20.28;100.00;100796.53;8356758;28;20033;-63
2023/09/13 12:57:02;;;;;;;2.60;1.48;;;;;;;20.15;100.00;100799.16;8356861;28;20537;-63
2023/09/13 13:01:03;;;;;;;1.70;1.60;;;;;;;20.18;100.00;100808.88;8352712;28;20036;-62
2023/09/13 13:05:04;;;;;;;1.65;1.33;;;;;;;20.02;100.00;100809.09;8354200;28;20037;-62
2023/09/13 13:09:07;;;;;;;2.38;1.80;;;;;;;20.17;100.00;100812.69;8353344;28;20120;-63
2023/09/13 13:13:08;;;;;;;5.60;2.25;;;;;;;20.28;100.00;100828.66;8355209;28;20070;-62
2023/09/13 13:17:08;;;;;;;3.90;3.40;;;;;;;20.14;100.00;100818.56;8354105;28;20052;-63
2023/09/13 13:21:12;;;;;;;6.75;4.30;;;;;;;20.13;100.00;100827.84;8379233;28;20028;-62
2023/09/13 13:25:13;;;;;;;4.68;3.95;;;;;;;20.18;100.00;100836.34;8356725;28;20041;-62
2023/09/13 13:29:14;;;;;;;6.53;4.38;;;;;;;20.33;100.00;100843.50;8355061;28;20043;-58
2023/09/13 13:33:14;;;;;;;4.90;4.45;;;;;;;20.59;100.00;100840.16;8351023;28;20037;-59
2023/09/13 13:37:15;;;;;;;5.57;4.13;;;;;;;20.93;100.00;100853.97;8356662;28;20041;-58
2023/09/13 13:41:17;;;;;;;6.35;3.88;;;;;;;21.26;100.00;100846.88;8352714;28;20458;-59
2023/09/13 13:45:17;;;;;;;5.55;2.90;;;;;;;21.32;99.38;100843.31;8354938;28;20052;-59
2023/09/13 13:49:18;;;;;;;5.93;2.58;;;;;;;21.51;97.91;100848.06;8353118;28;20136;-59
2023/09/13 13:53:20;;;;;;;2.88;2.25;;;;;;;21.69;96.21;100862.16;8356963;28;20051;-59
2023/09/13 13:57:22;;;;;;;2.03;1.63;;;;;;;21.80;94.34;100858.84;8350792;28;20044;-59
2023/09/13 14:01:23;;;;;;;4.72;1.73;;;;;;;21.82;94.89;100853.13;8351138;28;20044;-59
2023/09/13 14:05:23;;;;;;;3.45;1.65;;;;;;;21.93;93.56;100858.91;8347205;28;20095;-59
2023/09/13 14:09:24;;;;;;;4.22;1.73;;;;;;;21.95;90.10;100856.78;8353480;28;20048;-59
2023/09/13 14:13:25;;;;;;;3.92;1.70;;;;;;;21.88;91.39;100866.06;8350124;28;20414;-58
2023/09/13 14:17:27;;;;;;;3.08;1.83;;;;;;;21.65;92.56;100855.34;8348435;28;20087;-63
2023/09/13 14:21:27;;;;;;;5.35;2.03;;;;;;;21.54;91.25;100855.94;8354662;28;20406;-62
2023/09/13 14:25:28;;;;;;;2.15;1.58;;;;;;;21.49;90.86;100865.81;8340712;28;20124;-63
2023/09/13 14:29:28;;;;;;;3.03;1.88;;;;;;;21.50;91.03;100865.63;8342824;28;20419;-62
2023/09/13 14:33:34;;;;;;;3.45;2.03;;;;;;;21.58;88.92;100868.22;8359361;28;20557;-63
2023/09/13 14:37:34;;;;;;;3.10;2.40;;;;;;;21.44;88.57;100880.22;8359679;28;20090;-63
2023/09/13 14:41:35;;;;;;;4.30;2.80;;;;;;;21.24;90.73;100874.56;8357917;28;20487;-62
2023/09/13 14:45:35;;;;;;;4.03;2.10;;;;;;;21.21;90.84;100887.88;8361585;28;20068;-63
2023/09/13 14:49:36;;;;;;;4.75;2.35;;;;;;;21.14;89.94;100887.81;8359718;28;20529;-59
2023/09/13 14:53:36;;;;;;;3.60;1.88;;;;;;;21.07;89.63;100888.81;8359260;28;20048;-59
2023/09/13 14:57:37;;;;;;;4.05;2.00;;;;;;;21.08;90.67;100898.78;8361032;28;20602;-58
2023/09/13 15:01:38;;;;;;;4.88;1.75;;;;;;;21.03;89.26;100895.75;8356985;28;20193;-60
2023/09/13 15:05:38;;;;;;;2.22;1.60;;;;;;;20.99;86.94;100902.72;8359348;28;20047;-59
2023/09/13 15:09:39;;;;;;;3.75;2.88;;;;;;;21.02;84.55;100903.16;8357512;28;20098;-59
2023/09/13 15:13:39;;;;;;;5.28;3.10;;;;;;;20.97;84.19;100907.53;8358063;28;20036;-59
2023/09/13 15:17:39;;;;;;;5.18;3.72;;;;;;;21.01;83.40;100911.59;8359901;28;20033;-59
2023/09/13 15:21:40;;;;;;;5.35;3.25;;;;;;;21.00;82.95;100916.25;8359471;28;20580;-59
2023/09/13 15:25:40;;;;;;;6.32;4.65;;;;;;;21.08;80.42;100918.03;8355148;28;20075;-59
2023/09/13 15:29:42;;;;;;;5.00;4.50;;;;;;;20.99;81.01;100921.94;8355232;28;20037;-66
2023/09/13 15:33:43;;;;;;;7.22;4.82;;;;;;;21.02;82.15;100919.63;8364704;28;20041;-65
2023/09/13 15:37:43;;;;;;;6.53;5.15;;;;;;;21.09;82.11;100930.72;8360213;28;20044;-66
2023/09/13 15:41:43;;;;;;;4.10;3.55;;;;;;;21.12;80.95;100924.81;8355027;28;20060;-65
2023/09/13 15:45:44;;;;;;;5.50;3.92;;;;;;;21.18;81.69;100935.03;8354926;28;20319;-63
2023/09/13 15:49:44;;;;;;;5.60;3.58;;;;;;;21.28;82.40;100935.50;8355664;28;20095;-65
2023/09/13 15:53:45;;;;;;;4.45;3.20;;;;;;;21.26;80.73;100938.47;8356718;28;20037;-67
2023/09/13 15:57:45;;;;;;;5.28;3.58;;;;;;;21.24;82.14;100936.97;8351349;28;20046;-63
2023/09/13 16:01:46;;;;;;;4.32;3.22;;;;;;;21.11;82.22;100936.88;8353548;28;20489;-62
2023/09/13 16:05:47;;;;;;;3.95;2.50;;;;;;;21.04;83.83;100938.69;8355530;28;20063;-62
2023/09/13 16:09:47;;;;;;;3.50;1.90;;;;;;;20.91;84.18;100944.03;8354817;28;20041;-65
2023/09/13 16:13:49;;;;;;;3.15;1.48;;;;;;;20.85;85.25;100942.06;8356681;28;20033;-64
2023/09/13 16:17:49;;;;;;;3.47;1.33;;;;;;;20.75;84.75;100944.31;8354410;28;20029;-64
2023/09/13 16:21:50;;;;;;;3.05;1.52;;;;;;;20.72;85.20;100950.19;8355616;28;20083;-65
2023/09/13 16:25:50;;;;;;;2.85;1.33;;;;;;;20.92;84.92;100956.75;8356437;28;20041;-65
2023/09/13 16:29:51;;;;;;;3.15;1.50;;;;;;;20.64;86.26;100958.56;8353467;28;20048;-62
2023/09/13 16:33:51;;;;;;;3.92;1.70;;;;;;;20.53;87.19;100957.19;8353744;28;20036;-62
2023/09/13 16:37:52;;;;;;;4.20;2.88;;;;;;;20.55;86.86;100948.72;8354546;28;20044;-58
2023/09/13 16:41:55;;;;;;;6.75;3.20;;;;;;;20.52;87.70;100957.38;8353250;28;20499;-57
2023/09/13 16:45:55;;;;;;;6.72;3.08;;;;;;;20.51;87.28;100973.00;8351961;28;20056;-59
2023/09/13 16:49:56;;;;;;;5.28;2.67;;;;;;;20.51;87.45;100974.91;8354186;28;20518;-58
2023/09/13 16:53:57;;;;;;;3.70;2.00;;;;;;;20.48;87.34;100980.78;8352781;28;20348;-58
2023/09/13 16:57:57;;;;;;;8.43;2.67;;;;;;;20.40;87.29;100981.75;8347430;28;20044;-59
2023/09/13 17:01:58;;;;;;;4.65;2.83;;;;;;;20.44;86.87;100984.97;8345756;28;20049;-61
2023/09/13 17:05:59;;;;;;;7.07;2.78;;;;;;;20.41;86.30;100974.38;8330841;28;20048;-61
2023/09/13 17:09:59;;;;;;;2.38;2.13;;;;;;;20.43;87.13;100972.28;8335837;28;20037;-59
2023/09/13 17:14:00;;;;;;;5.40;2.55;;;;;;;20.40;88.01;100978.16;8347496;28;20053;-58
2023/09/13 17:18:00;;;;;;;4.97;2.88;;;;;;;20.28;87.54;100979.69;8346430;28;20045;-59
2023/09/13 17:22:01;;;;;;;6.18;2.88;;;;;;;20.19;88.01;100978.94;8347293;28;20033;-60
2023/09/13 17:26:03;;;;;;;3.67;2.70;;;;;;;20.16;89.07;100992.22;8347977;28;20071;-60
2023/09/13 17:30:04;;;;;;;3.65;2.60;;;;;;;20.12;88.42;100988.09;8348911;28;20037;-63
2023/09/13 17:34:04;;;;;;;5.40;2.67;;;;;;;20.13;87.13;100992.59;8365821;28;20044;-62
2023/09/13 17:38:05;;;;;;;6.18;2.42;;;;;;;20.12;88.52;101001.81;8363914;28;20048;-61
2023/09/13 17:42:05;;;;;;;3.08;2.60;;;;;;;20.07;88.21;101005.13;8360455;28;20463;-60
2023/09/13 17:46:06;;;;;;;6.55;2.47;;;;;;;20.00;89.15;101008.84;8365882;28;20090;-61
2023/09/13 17:50:07;;;;;;;5.22;2.38;;;;;;;19.97;88.48;101009.22;8363567;28;20036;-65
2023/09/13 17:54:08;;;;;;;5.78;2.20;;;;;;;20.01;87.21;101013.28;8361382;28;20538;-66
2023/09/13 17:58:09;;;;;;;3.15;1.90;;;;;;;19.95;87.24;101014.03;8355878;28;20036;-63
2023/09/13 18:02:11;;;;;;;5.25;1.88;;;;;;;19.97;86.89;101031.19;8361932;28;20567;-62
2023/09/13 18:06:11;;;;;;;4.53;1.80;;;;;;;19.91;86.75;101043.75;8364123;28;20044;-63
2023/09/13 18:10:13;;;;;;;4.10;1.77;;;;;;;19.95;89.72;101038.75;8358605;28;20033;-59
2023/09/13 18:14:13;;;;;;;3.60;2.05;;;;;;;19.85;88.50;101038.19;8359461;28;20037;-59
2023/09/13 18:18:14;;;;;;;6.13;1.80;;;;;;;19.70;93.86;101034.56;8351493;28;20044;-60
2023/09/13 18:22:14;;;;;;;3.00;1.80;;;;;;;19.66;92.48;101044.19;8348270;28;20048;-59